LFMD/CEQ METAR and TAF weather

Enter ICAO airport designator
Station Type Date Time Source
LFMD METAR 2022/05/23 13:30 UTC NOAA

LFMD 231330Z AUTO 15006KT 070V210 9999 FEW047/// BKN100/// BKN130/// ///TCU 22/18 Q1007 BECMG BKN020


Station Type Date Time Source
LFMD Decoded METAR 2022/05/23 13:30 UTC NOAA

Cannes, France (LFMD) 43-33N 006-57E 9M
May 23, 2022 - 09:30 AM EDT / 2022.05.23 1330 UTC
Wind: from the SSE (150 degrees) at 7 MPH (6 KT) (direction variable):0
Visibility: greater than 7 mile(s):0
Sky conditions: mostly cloudy
Weather: Towering cumulus clouds observed
Temperature: 71 F (22 C)
Dew Point: 64 F (18 C)
Relative Humidity: 78%
Pressure (altimeter): 29.74 in. Hg (1007 hPa)
ob: LFMD 231330Z AUTO 15006KT 070V210 9999 FEW047/// BKN100/// BKN130/// ///TCU 22/18 Q1007 BECMG BKN020
cycle: 13

Station Type Date Time Source
LFMD TAF 2022/05/23 09:22 UTC NOAA

TAF LFMD 230800Z 2309/2409 14007KT 9999 BKN020

Example: see airport list